sensor_id;sensor_type;location;lat;lon;timestamp;P1;durP1;ratioP1;P2;durP2;ratioP2
12373;SDS011;6251;51.762;8.660;2022-09-21T04:04:45;2.87;;;2.67;;
12373;SDS011;6251;51.762;8.660;2022-09-21T04:14:46;2.67;;;2.47;;
12373;SDS011;6251;51.762;8.660;2022-09-21T04:24:48;2.53;;;2.33;;
12373;SDS011;6251;51.762;8.660;2022-09-21T04:34:49;3.13;;;2.87;;
12373;SDS011;6251;51.762;8.660;2022-09-21T04:44:50;2.80;;;2.60;;
12373;SDS011;6251;51.762;8.660;2022-09-21T04:54:50;2.90;;;2.70;;
12373;SDS011;6251;51.762;8.660;2022-09-21T05:04:52;4.10;;;2.90;;
12373;SDS011;6251;51.762;8.660;2022-09-21T05:14:52;3.07;;;2.87;;
12373;SDS011;6251;51.762;8.660;2022-09-21T05:24:54;2.80;;;2.60;;
12373;SDS011;6251;51.762;8.660;2022-09-21T05:45:06;3.13;;;2.63;;
12373;SDS011;6251;51.762;8.660;2022-09-21T06:05:28;3.80;;;2.97;;
12373;SDS011;6251;51.762;8.660;2022-09-21T06:15:29;4.27;;;3.43;;
12373;SDS011;6251;51.762;8.660;2022-09-21T06:25:33;4.07;;;3.67;;
12373;SDS011;6251;51.762;8.660;2022-09-21T06:35:35;5.47;;;4.90;;
12373;SDS011;6251;51.762;8.660;2022-09-21T06:45:36;6.33;;;5.47;;
12373;SDS011;6251;51.762;8.660;2022-09-21T06:55:36;6.83;;;5.30;;
12373;SDS011;6251;51.762;8.660;2022-09-21T07:05:37;10.73;;;7.35;;
12373;SDS011;6251;51.762;8.660;2022-09-21T07:15:39;8.53;;;7.10;;
12373;SDS011;6251;51.762;8.660;2022-09-21T07:25:43;9.95;;;7.40;;
12373;SDS011;6251;51.762;8.660;2022-09-21T07:35:54;11.20;;;7.23;;
12373;SDS011;6251;51.762;8.660;2022-09-21T07:45:55;10.82;;;7.80;;
12373;SDS011;6251;51.762;8.660;2022-09-21T07:56:03;10.95;;;8.05;;
12373;SDS011;6251;51.762;8.660;2022-09-21T08:06:06;12.23;;;8.88;;
12373;SDS011;6251;51.762;8.660;2022-09-21T08:16:08;14.27;;;8.80;;
12373;SDS011;6251;51.762;8.660;2022-09-21T08:26:10;18.83;;;11.43;;
12373;SDS011;6251;51.762;8.660;2022-09-21T08:36:17;20.58;;;13.15;;
12373;SDS011;6251;51.762;8.660;2022-09-21T08:46:22;18.83;;;12.30;;
12373;SDS011;6251;51.762;8.660;2022-09-21T08:56:26;14.27;;;10.10;;
12373;SDS011;6251;51.762;8.660;2022-09-21T09:07:16;11.35;;;7.03;;
12373;SDS011;6251;51.762;8.660;2022-09-21T09:26:56;11.85;;;7.82;;
12373;SDS011;6251;51.762;8.660;2022-09-21T09:37:09;12.65;;;7.18;;
12373;SDS011;6251;51.762;8.660;2022-09-21T09:47:28;11.68;;;6.93;;
12373;SDS011;6251;51.762;8.660;2022-09-21T09:57:53;8.13;;;6.30;;
12373;SDS011;6251;51.762;8.660;2022-09-21T10:07:55;9.57;;;6.93;;
12373;SDS011;6251;51.762;8.660;2022-09-21T10:17:56;7.97;;;5.30;;
12373;SDS011;6251;51.762;8.660;2022-09-21T10:28:06;8.75;;;5.57;;
12373;SDS011;6251;51.762;8.660;2022-09-21T10:38:19;5.40;;;4.10;;
12373;SDS011;6251;51.762;8.660;2022-09-21T10:48:26;4.75;;;4.12;;
12373;SDS011;6251;51.762;8.660;2022-09-21T10:58:27;3.70;;;3.25;;
12373;SDS011;6251;51.762;8.660;2022-09-21T11:08:35;3.47;;;3.00;;
12373;SDS011;6251;51.762;8.660;2022-09-21T11:29:15;3.50;;;2.40;;
12373;SDS011;6251;51.762;8.660;2022-09-21T12:30:47;1.55;;;0.85;;
12373;SDS011;6251;51.762;8.660;2022-09-21T12:51:28;0.70;;;0.70;;
12373;SDS011;6251;51.762;8.660;2022-09-21T13:12:20;1.98;;;0.80;;
12373;SDS011;6251;51.762;8.660;2022-09-21T13:22:25;1.12;;;0.85;;
12373;SDS011;6251;51.762;8.660;2022-09-21T13:32:49;1.00;;;0.90;;
12373;SDS011;6251;51.762;8.660;2022-09-21T13:42:51;0.88;;;0.88;;
12373;SDS011;6251;51.762;8.660;2022-09-21T13:52:53;1.80;;;0.75;;
12373;SDS011;6251;51.762;8.660;2022-09-21T14:02:59;1.52;;;0.90;;
12373;SDS011;6251;51.762;8.660;2022-09-21T14:13:05;2.28;;;1.10;;
12373;SDS011;6251;51.762;8.660;2022-09-21T14:33:43;2.17;;;1.98;;
12373;SDS011;6251;51.762;8.660;2022-09-21T14:43:48;2.37;;;1.20;;
12373;SDS011;6251;51.762;8.660;2022-09-21T15:04:28;2.42;;;1.23;;
12373;SDS011;6251;51.762;8.660;2022-09-21T15:24:36;1.58;;;0.90;;
12373;SDS011;6251;51.762;8.660;2022-09-21T15:34:47;4.25;;;1.02;;
12373;SDS011;6251;51.762;8.660;2022-09-21T15:44:48;0.98;;;0.80;;
12373;SDS011;6251;51.762;8.660;2022-09-21T15:54:57;1.95;;;1.12;;
12373;SDS011;6251;51.762;8.660;2022-09-21T16:04:59;7.40;;;2.17;;
12373;SDS011;6251;51.762;8.660;2022-09-21T16:23:47;1.65;;;0.90;;
12373;SDS011;6251;51.762;8.660;2022-09-21T16:43:54;1.35;;;1.25;;
12373;SDS011;6251;51.762;8.660;2022-09-21T16:53:57;1.33;;;1.00;;
12373;SDS011;6251;51.762;8.660;2022-09-21T17:03:58;1.05;;;1.05;;
12373;SDS011;6251;51.762;8.660;2022-09-21T17:13:59;1.92;;;1.90;;
12373;SDS011;6251;51.762;8.660;2022-09-21T17:24:03;2.15;;;1.95;;
12373;SDS011;6251;51.762;8.660;2022-09-21T17:34:09;2.10;;;1.90;;
12373;SDS011;6251;51.762;8.660;2022-09-21T17:44:15;2.40;;;2.20;;
12373;SDS011;6251;51.762;8.660;2022-09-21T18:04:28;3.40;;;2.37;;
12373;SDS011;6251;51.762;8.660;2022-09-21T18:24:40;4.37;;;3.50;;
12373;SDS011;6251;51.762;8.660;2022-09-21T18:45:12;9.80;;;6.57;;
12373;SDS011;6251;51.762;8.660;2022-09-21T19:05:28;15.35;;;8.45;;
12373;SDS011;6251;51.762;8.660;2022-09-21T19:15:38;16.25;;;9.10;;
12373;SDS011;6251;51.762;8.660;2022-09-21T19:36:19;5.85;;;4.97;;
12373;SDS011;6251;51.762;8.660;2022-09-21T19:56:45;6.75;;;4.65;;
12373;SDS011;6251;51.762;8.660;2022-09-21T20:07:08;5.35;;;3.58;;
12373;SDS011;6251;51.762;8.660;2022-09-21T20:38:11;3.65;;;2.95;;
12373;SDS011;6251;51.762;8.660;2022-09-21T20:48:11;3.37;;;3.17;;
12373;SDS011;6251;51.762;8.660;2022-09-21T20:58:12;3.80;;;3.50;;
